createdAt,value
2022-09-26T03:54:42.765Z,99674.14
2022-09-26T03:58:06.696Z,99684.58
2022-09-26T04:01:34.178Z,99682.27
2022-09-26T04:04:58.611Z,99670.44
2022-09-26T04:08:22.236Z,99670.11
2022-09-26T04:11:46.358Z,99668.03
2022-09-26T04:15:11.108Z,99667.86
2022-09-26T04:18:36.440Z,99663.81
2022-09-26T04:22:00.321Z,99659.42
2022-09-26T04:25:26.501Z,99656.60
2022-09-26T04:28:55.371Z,99653.79
2022-09-26T04:32:24.820Z,99652.41
2022-09-26T04:36:10.498Z,99649.30
2022-09-26T04:39:35.851Z,99651.21
2022-09-26T04:42:59.862Z,99655.25
2022-09-26T04:46:30.396Z,99657.20
2022-09-26T04:49:56.027Z,99664.39
2022-09-26T04:53:19.597Z,99671.01
2022-09-26T04:57:02.339Z,99672.23
2022-09-26T05:00:26.429Z,99667.39
2022-09-26T05:03:51.184Z,99663.64
2022-09-26T05:07:15.991Z,99652.92
2022-09-26T05:10:39.707Z,99647.45
2022-09-26T05:14:09.462Z,99646.30
2022-09-26T05:17:34.216Z,99649.02
2022-09-26T05:21:00.674Z,99652.42
2022-09-26T05:24:43.967Z,99657.26
2022-09-26T05:28:08.297Z,99647.98
2022-09-26T05:31:35.863Z,99643.62
2022-09-26T05:34:59.543Z,99639.45
2022-09-26T05:38:25.824Z,99639.92
2022-09-26T05:41:51.009Z,99640.27
2022-09-26T05:45:15.196Z,99641.98
2022-09-26T05:48:40.226Z,99644.88
2022-09-26T05:52:07.629Z,99649.69
2022-09-26T05:55:32.150Z,99647.97
2022-09-26T05:59:32.210Z,99645.70
2022-09-26T06:03:16.042Z,99649.36
2022-09-26T06:06:48.224Z,99655.56
2022-09-26T06:10:13.464Z,99654.35
2022-09-26T06:13:45.054Z,99655.64
2022-09-26T06:17:09.099Z,99652.98
2022-09-26T06:20:34.045Z,99658.55
2022-09-26T06:23:58.223Z,99665.69
2022-09-26T06:27:24.869Z,99656.88
2022-09-26T06:30:48.222Z,99653.90
2022-09-26T06:34:22.002Z,99651.87
2022-09-26T06:38:05.459Z,99656.78
2022-09-26T06:41:29.997Z,99660.98
2022-09-26T06:44:53.344Z,99659.45
2022-09-26T06:48:24.770Z,99654.81
2022-09-26T06:52:11.091Z,99651.75
2022-09-26T06:55:35.947Z,99648.52
2022-09-26T06:58:59.805Z,99654.67
2022-09-26T07:02:31.227Z,99652.48
2022-09-26T07:06:16.629Z,99653.52
2022-09-26T07:09:40.676Z,99654.98
2022-09-26T07:13:21.961Z,99659.38
2022-09-26T07:16:47.916Z,99657.45
2022-09-26T07:20:35.840Z,99653.10
2022-09-26T07:24:14.006Z,99650.44
2022-09-26T07:27:38.940Z,99647.91
2022-09-26T07:31:03.225Z,99645.54
2022-09-26T07:34:39.150Z,99648.71
2022-09-26T07:38:04.738Z,99650.63
2022-09-26T07:41:31.039Z,99649.55
2022-09-26T07:45:26.138Z,99646.30
2022-09-26T07:48:57.970Z,99640.74
2022-09-26T07:52:50.984Z,99643.19
2022-09-26T07:56:18.588Z,99644.20
2022-09-26T08:00:17.954Z,99640.19
2022-09-26T08:03:49.079Z,99638.10
2022-09-26T08:07:24.395Z,99636.35
2022-09-26T08:11:02.852Z,99639.10
2022-09-26T08:14:48.444Z,99646.20
2022-09-26T08:18:16.219Z,99647.17
2022-09-26T08:21:39.855Z,99650.14
2022-09-26T08:25:06.569Z,99653.95
2022-09-26T08:29:05.850Z,99657.89
2022-09-26T08:32:31.595Z,99659.77
2022-09-26T08:35:55.588Z,99662.53
2022-09-26T08:39:42.550Z,99665.54
2022-09-26T08:43:56.050Z,99659.20
2022-09-26T08:47:48.925Z,99656.67
2022-09-26T08:51:49.556Z,99656.27
2022-09-26T08:55:17.738Z,99658.20
2022-09-26T08:58:48.090Z,99661.44
2022-09-26T09:02:23.085Z,99660.67
2022-09-26T09:06:01.826Z,99658.23
2022-09-26T09:09:25.479Z,99655.63
2022-09-26T09:13:29.262Z,99649.69
2022-09-26T09:17:34.314Z,99644.34
2022-09-26T09:21:41.992Z,99646.19
2022-09-26T09:25:31.585Z,99645.00
2022-09-26T09:29:11.708Z,99647.55
2022-09-26T09:32:52.696Z,99645.23
2022-09-26T09:36:33.007Z,99645.95
2022-09-26T09:40:16.752Z,99647.23
2022-09-26T09:43:56.267Z,99648.12
2022-09-26T09:47:21.716Z,99648.14
2022-09-26T09:50:55.252Z,99648.80
2022-09-26T09:54:46.672Z,99648.23
2022-09-26T09:58:36.874Z,99645.80
2022-09-26T10:02:18.722Z,99650.50
2022-09-26T10:05:44.645Z,99650.80
2022-09-26T10:09:35.644Z,99652.52
2022-09-26T10:13:24.664Z,99647.60
2022-09-26T10:17:20.734Z,99644.64
2022-09-26T10:20:53.609Z,99637.88
2022-09-26T10:24:26.837Z,99633.84
2022-09-26T10:27:58.949Z,99636.05
2022-09-26T10:31:28.702Z,99638.81
2022-09-26T10:35:20.082Z,99632.95
2022-09-26T10:39:15.243Z,99635.41
2022-09-26T10:42:39.901Z,99628.94
2022-09-26T10:46:10.381Z,99628.48
2022-09-26T10:49:59.270Z,99622.13
2022-09-26T10:53:42.757Z,99618.15
2022-09-26T10:57:09.068Z,99616.44
2022-09-26T11:00:40.065Z,99610.51
2022-09-26T11:04:34.508Z,99611.25
2022-09-26T11:08:21.701Z,99617.84
2022-09-26T11:12:23.334Z,99616.13
2022-09-26T11:16:01.820Z,99616.10
2022-09-26T11:19:39.242Z,99615.27
2022-09-26T11:23:14.012Z,99614.38
2022-09-26T11:26:50.638Z,99608.73
2022-09-26T11:30:20.206Z,99606.19
2022-09-26T11:34:03.713Z,99607.62
2022-09-26T11:38:00.014Z,99606.16
2022-09-26T11:41:37.820Z,99604.50
2022-09-26T11:45:08.616Z,99607.16
2022-09-26T11:49:12.818Z,99609.38
2022-09-26T11:53:12.887Z,99615.19
2022-09-26T11:56:50.012Z,99608.70
2022-09-26T12:00:25.786Z,99607.27
2022-09-26T12:04:11.373Z,99605.41
2022-09-26T12:07:44.054Z,99602.85
2022-09-26T12:11:18.625Z,99595.89
2022-09-26T12:15:02.265Z,99592.78
2022-09-26T12:18:34.567Z,99588.16
2022-09-26T12:22:25.747Z,99589.86
2022-09-26T12:26:00.844Z,99590.27
2022-09-26T12:29:37.474Z,99588.19
2022-09-26T12:33:20.282Z,99585.60
2022-09-26T12:36:58.605Z,99585.09
2022-09-26T12:40:39.395Z,99587.00
2022-09-26T12:44:32.146Z,99581.80
2022-09-26T12:48:09.522Z,99581.06
2022-09-26T12:51:42.794Z,99575.27
2022-09-26T12:55:23.049Z,99569.79
2022-09-26T12:59:06.547Z,99567.67
2022-09-26T13:02:56.301Z,99562.33
2022-09-26T13:06:48.919Z,99562.15
2022-09-26T13:10:37.704Z,99551.48
2022-09-26T13:14:27.119Z,99547.86
2022-09-26T13:17:57.250Z,99549.86
2022-09-26T13:21:32.328Z,99548.01
2022-09-26T13:25:05.340Z,99544.17
2022-09-26T13:28:37.219Z,99543.84
2022-09-26T13:32:14.499Z,99533.64
2022-09-26T13:35:46.919Z,99531.76
2022-09-26T13:39:17.985Z,99531.09
2022-09-26T13:42:47.346Z,99526.27
2022-09-26T13:46:24.649Z,99527.19
2022-09-26T13:50:02.940Z,99520.10
2022-09-26T13:53:34.342Z,99516.02
2022-09-26T13:56:57.886Z,99508.41
2022-09-26T14:00:48.429Z,99509.55
2022-09-26T14:04:19.426Z,99508.70
2022-09-26T14:08:13.968Z,99499.42
2022-09-26T14:11:48.559Z,99491.83
2022-09-26T14:15:22.226Z,99485.89
2022-09-26T14:18:59.419Z,99482.45
2022-09-26T14:22:49.546Z,99484.71
2022-09-26T14:26:17.833Z,99488.56
2022-09-26T14:29:50.525Z,99490.49
2022-09-26T14:33:17.116Z,99490.46
2022-09-26T14:36:42.558Z,99485.70
2022-09-26T14:40:28.958Z,99488.84
2022-09-26T14:43:52.941Z,99488.40
2022-09-26T14:47:16.942Z,99490.05
2022-09-26T14:50:47.712Z,99481.92
2022-09-26T14:54:22.780Z,99478.27
2022-09-26T14:57:47.805Z,99480.04
2022-09-26T15:01:19.244Z,99479.77
2022-09-26T15:04:44.687Z,99472.20
2022-09-26T15:08:23.953Z,99470.85
2022-09-26T15:11:55.086Z,99476.04
2022-09-26T15:15:34.802Z,99475.73
2022-09-26T15:19:03.629Z,99467.75
2022-09-26T15:22:30.670Z,99469.84
2022-09-26T15:25:57.430Z,99472.63
2022-09-26T15:29:22.088Z,99472.52
2022-09-26T15:32:48.447Z,99473.61
2022-09-26T15:36:15.981Z,99470.77
2022-09-26T15:39:42.134Z,99471.95
2022-09-26T15:43:14.512Z,99467.19
2022-09-26T15:46:38.516Z,99461.77
2022-09-26T15:50:11.792Z,99460.88
2022-09-26T15:53:41.324Z,99462.48
2022-09-26T15:57:09.589Z,99460.29
2022-09-26T16:00:36.588Z,99459.23
2022-09-26T16:04:02.843Z,99460.13
2022-09-26T16:07:30.160Z,99458.02
2022-09-26T16:10:56.943Z,99455.58
2022-09-26T16:14:26.111Z,99447.86
2022-09-26T16:17:56.764Z,99451.91
2022-09-26T16:21:22.801Z,99443.90
2022-09-26T16:24:46.707Z,99437.77
2022-09-26T16:28:41.924Z,99438.48
2022-09-26T16:32:06.163Z,99440.14
2022-09-26T16:35:32.890Z,99439.81
2022-09-26T16:38:59.491Z,99439.81
2022-09-26T16:42:26.282Z,99437.31
2022-09-26T16:45:55.234Z,99442.02
2022-09-26T16:49:39.485Z,99438.49
2022-09-26T16:53:07.861Z,99440.39
2022-09-26T16:56:33.769Z,99443.84
2022-09-26T17:00:15.425Z,99442.39
2022-09-26T17:03:40.495Z,99440.59
2022-09-26T17:07:10.538Z,99440.84
2022-09-26T17:10:37.243Z,99440.05
2022-09-26T17:14:01.073Z,99443.92
2022-09-26T17:17:25.337Z,99444.52
2022-09-26T17:20:49.366Z,99438.10
2022-09-26T17:24:16.718Z,99434.81
2022-09-26T17:27:41.771Z,99437.84
2022-09-26T17:31:07.778Z,99437.69
2022-09-26T17:34:34.501Z,99439.97
2022-09-26T17:37:59.467Z,99438.42
2022-09-26T17:41:29.239Z,99437.03
2022-09-26T17:44:54.056Z,99434.25
2022-09-26T17:48:25.899Z,99435.66
2022-09-26T17:51:49.477Z,99434.09
2022-09-26T17:55:13.809Z,99434.09
2022-09-26T17:58:41.084Z,99427.28
2022-09-26T18:02:19.601Z,99436.19
2022-09-26T18:05:43.196Z,99437.75
2022-09-26T18:09:11.445Z,99441.41
2022-09-26T18:12:35.960Z,99438.92
2022-09-26T18:15:59.664Z,99435.05
2022-09-26T18:19:24.522Z,99430.70
2022-09-26T18:22:49.865Z,99428.94
2022-09-26T18:26:25.020Z,99424.04
2022-09-26T18:29:49.584Z,99424.38
2022-09-26T18:33:14.974Z,99419.48
2022-09-26T18:36:38.565Z,99417.20
2022-09-26T18:40:04.293Z,99409.71
2022-09-26T18:43:31.233Z,99406.73
2022-09-26T18:47:00.973Z,99405.14
2022-09-26T18:50:31.503Z,99400.95
2022-09-26T18:53:55.357Z,99403.55
2022-09-26T18:57:37.406Z,99405.12
2022-09-26T19:01:05.212Z,99410.69
2022-09-26T19:04:31.364Z,99407.73
2022-09-26T19:07:56.632Z,99407.71
2022-09-26T19:11:21.926Z,99411.70
2022-09-26T19:14:45.509Z,99413.95
2022-09-26T19:18:10.293Z,99411.14
2022-09-26T19:21:37.228Z,99407.63
2022-09-26T19:25:02.191Z,99402.22
2022-09-26T19:28:30.110Z,99399.23
2022-09-26T19:31:53.989Z,99395.90
2022-09-26T19:35:23.643Z,99394.84
2022-09-26T19:38:47.828Z,99393.77
2022-09-26T19:42:11.361Z,99390.28
2022-09-26T19:45:35.377Z,99390.79
2022-09-26T19:49:00.125Z,99399.81
2022-09-26T19:52:23.905Z,99400.66
2022-09-26T19:55:49.812Z,99395.23
2022-09-26T19:59:16.554Z,99393.45
2022-09-26T20:02:42.111Z,99392.04
2022-09-26T20:06:16.034Z,99384.87
2022-09-26T20:09:40.861Z,99381.20
2022-09-26T20:13:05.557Z,99375.27
2022-09-26T20:16:31.202Z,99368.63
2022-09-26T20:19:58.618Z,99365.30
2022-09-26T20:23:24.857Z,99356.77
2022-09-26T20:26:48.864Z,99356.08
2022-09-26T20:30:34.405Z,99363.03
2022-09-26T20:33:59.329Z,99362.66
2022-09-26T20:37:23.090Z,99360.20
2022-09-26T20:40:48.450Z,99360.50
2022-09-26T20:44:18.486Z,99359.10
2022-09-26T20:47:43.891Z,99358.91
2022-09-26T20:51:14.324Z,99357.69
2022-09-26T20:54:37.826Z,99353.34
2022-09-26T20:58:02.256Z,99347.98
2022-09-26T21:01:28.062Z,99345.38
2022-09-26T21:04:53.149Z,99347.83
2022-09-26T21:08:26.144Z,99347.16
2022-09-26T21:11:49.738Z,99345.44
2022-09-26T21:15:13.404Z,99344.24
2022-09-26T21:18:36.885Z,99337.82
2022-09-26T21:22:02.590Z,99340.09
2022-09-26T21:25:37.364Z,99332.61
2022-09-26T21:29:01.109Z,99331.23
2022-09-26T21:32:24.771Z,99334.03
2022-09-26T21:35:48.890Z,99330.73
2022-09-26T21:39:13.486Z,99325.84
2022-09-26T21:42:37.981Z,99323.59
2022-09-26T21:46:02.584Z,99321.14
2022-09-26T21:49:27.485Z,99319.78
2022-09-26T21:53:01.460Z,99317.17
2022-09-26T21:56:29.220Z,99314.58
2022-09-26T21:59:55.756Z,99310.05
2022-09-26T22:03:19.349Z,99308.52
2022-09-26T22:06:42.869Z,99304.69
2022-09-26T22:10:07.885Z,99292.52
2022-09-26T22:13:32.440Z,99287.66
2022-09-26T22:16:59.252Z,99286.64
2022-09-26T22:20:24.075Z,99278.83
2022-09-26T22:23:50.113Z,99272.92
2022-09-26T22:27:13.889Z,99268.06
2022-09-26T22:30:40.475Z,99265.64
2022-09-26T22:34:04.582Z,99260.77
2022-09-26T22:37:28.220Z,99258.00
2022-09-26T22:40:56.855Z,99254.16
2022-09-26T22:44:20.688Z,99247.71
2022-09-26T22:47:46.793Z,99242.48
2022-09-26T22:51:10.987Z,99238.14
